createdAt,value
2023-10-26T00:03:39.653Z,2.55
2023-10-26T00:08:49.791Z,2.67
2023-10-26T00:13:58.483Z,2.70
2023-10-26T00:19:07.242Z,2.72
2023-10-26T00:24:17.360Z,2.40
2023-10-26T00:29:26.137Z,2.75
2023-10-26T00:34:35.228Z,3.20
2023-10-26T00:39:46.169Z,2.60
2023-10-26T00:44:57.957Z,2.40
2023-10-26T00:50:08.393Z,2.63
2023-10-26T00:55:19.056Z,2.92
2023-10-26T01:00:28.459Z,2.63
2023-10-26T01:05:37.142Z,2.25
2023-10-26T01:10:48.326Z,2.95
2023-10-26T01:21:06.068Z,2.25
2023-10-26T01:26:16.165Z,2.40
2023-10-26T01:31:24.839Z,2.38
2023-10-26T01:36:33.973Z,2.60
2023-10-26T01:41:44.016Z,2.25
2023-10-26T01:46:52.747Z,2.05
2023-10-26T01:52:01.427Z,2.40
2023-10-26T01:57:11.645Z,2.58
2023-10-26T02:02:20.361Z,3.07
2023-10-26T02:07:29.794Z,3.03
2023-10-26T02:12:39.896Z,2.38
2023-10-26T02:17:48.608Z,2.53
2023-10-26T02:22:57.301Z,2.58
2023-10-26T02:28:07.411Z,3.03
2023-10-26T02:33:16.174Z,2.25
2023-10-26T02:38:24.989Z,2.63
2023-10-26T02:43:36.308Z,2.63
2023-10-26T02:48:45.040Z,3.03
2023-10-26T02:53:54.642Z,2.97
2023-10-26T02:58:59.795Z,2.90
2023-10-26T03:04:08.744Z,2.90
2023-10-26T03:09:18.272Z,2.53
2023-10-26T03:14:23.574Z,2.47
2023-10-26T03:19:32.277Z,2.63
2023-10-26T03:24:41.025Z,2.30
2023-10-26T03:29:51.163Z,2.80
2023-10-26T03:35:01.847Z,2.53
2023-10-26T03:40:11.709Z,2.47
2023-10-26T03:45:21.826Z,2.75
2023-10-26T03:50:30.628Z,2.50
2023-10-26T03:55:39.406Z,2.78
2023-10-26T04:00:49.725Z,2.28
2023-10-26T04:05:58.393Z,2.53
2023-10-26T04:11:07.094Z,2.53
2023-10-26T04:16:17.154Z,2.22
2023-10-26T04:21:25.842Z,2.50
2023-10-26T04:26:34.736Z,2.13
2023-10-26T04:31:44.921Z,2.40
2023-10-26T04:36:53.801Z,2.73
2023-10-26T04:42:02.570Z,2.58
2023-10-26T04:47:07.912Z,2.50
2023-10-26T04:52:19.604Z,2.70
2023-10-26T04:57:28.504Z,3.08
2023-10-26T05:02:41.080Z,3.35
2023-10-26T05:07:45.568Z,3.50
2023-10-26T05:12:54.644Z,3.60
2023-10-26T05:18:05.493Z,3.35
2023-10-26T05:23:14.277Z,3.55
2023-10-26T05:28:23.096Z,3.97
2023-10-26T05:33:34.738Z,3.95
2023-10-26T05:38:45.885Z,2.88
2023-10-26T05:43:55.999Z,2.90
2023-10-26T05:49:06.343Z,3.72
2023-10-26T05:54:15.015Z,3.57
2023-10-26T05:59:23.836Z,4.05
2023-10-26T06:04:34.210Z,3.88
2023-10-26T06:09:42.928Z,4.80
2023-10-26T06:14:51.700Z,4.10
2023-10-26T06:20:01.780Z,4.95
2023-10-26T06:25:12.079Z,3.87
2023-10-26T06:30:20.874Z,4.05
2023-10-26T06:35:30.980Z,4.38
2023-10-26T06:40:39.784Z,4.53
2023-10-26T06:45:48.588Z,5.05
2023-10-26T06:51:03.151Z,4.38
2023-10-26T06:56:13.024Z,5.30
2023-10-26T07:01:20.825Z,5.50
2023-10-26T07:06:26.327Z,5.57
2023-10-26T07:11:35.044Z,6.33
2023-10-26T07:16:43.815Z,6.95
2023-10-26T07:21:48.947Z,6.05
2023-10-26T07:26:57.593Z,6.50
2023-10-26T07:32:06.999Z,5.32
2023-10-26T07:37:17.062Z,5.63
2023-10-26T07:42:25.857Z,6.40
2023-10-26T07:47:35.402Z,6.70
2023-10-26T07:52:45.455Z,6.50
2023-10-26T07:57:49.287Z,5.88
2023-10-26T08:02:59.400Z,6.50
2023-10-26T08:08:05.014Z,7.43
2023-10-26T08:13:13.731Z,5.80
2023-10-26T08:18:26.946Z,5.30
2023-10-26T08:23:37.257Z,6.13
2023-10-26T08:28:46.078Z,5.47
2023-10-26T08:33:54.823Z,5.88
2023-10-26T08:39:05.269Z,5.20
2023-10-26T08:44:14.081Z,5.05
2023-10-26T08:49:25.590Z,5.53
2023-10-26T08:54:35.668Z,5.60
2023-10-26T08:59:44.557Z,4.72
2023-10-26T09:05:03.860Z,4.90
2023-10-26T09:10:10.716Z,5.38
2023-10-26T09:15:19.808Z,5.38
2023-10-26T09:20:30.239Z,5.25
2023-10-26T09:25:36.930Z,6.15
2023-10-26T09:30:46.967Z,5.50
2023-10-26T09:35:56.091Z,5.45
2023-10-26T09:41:08.462Z,5.32
2023-10-26T09:46:19.224Z,5.13
2023-10-26T09:51:28.389Z,5.32
2023-10-26T09:56:43.367Z,5.55
2023-10-26T10:01:52.208Z,5.05
2023-10-26T10:07:02.043Z,5.80
2023-10-26T10:12:35.116Z,5.53
2023-10-26T10:18:16.674Z,5.55
2023-10-26T10:23:32.167Z,5.80
2023-10-26T10:28:55.531Z,4.70
2023-10-26T10:34:06.892Z,5.22
2023-10-26T10:39:24.936Z,4.93
2023-10-26T10:44:40.905Z,4.07
2023-10-26T10:49:49.700Z,3.60
2023-10-26T10:55:05.006Z,3.78
2023-10-26T11:00:17.129Z,4.32
2023-10-26T11:05:21.331Z,2.95
2023-10-26T11:10:31.029Z,3.47
2023-10-26T11:15:41.914Z,2.28
2023-10-26T11:20:50.746Z,2.78
2023-10-26T11:25:59.457Z,2.65
2023-10-26T11:31:09.621Z,2.63
2023-10-26T11:36:18.462Z,1.90
2023-10-26T12:09:14.786Z,1.50
2023-10-26T12:14:23.565Z,1.48
2023-10-26T12:19:27.314Z,2.08
2023-10-26T12:24:37.874Z,1.70
2023-10-26T12:34:55.696Z,1.48
2023-10-26T12:40:09.319Z,1.25
2023-10-26T12:45:18.933Z,1.02
2023-10-26T12:50:27.991Z,1.17
2023-10-26T12:55:38.225Z,1.50
2023-10-26T13:05:58.363Z,1.67
2023-10-26T13:11:08.706Z,1.67
2023-10-26T13:16:17.725Z,1.25
2023-10-26T13:21:27.131Z,1.75
2023-10-26T13:26:37.355Z,2.03
2023-10-26T13:31:46.077Z,1.92
2023-10-26T13:36:55.155Z,1.77
2023-10-26T13:42:05.591Z,1.20
2023-10-26T13:47:14.270Z,1.40
2023-10-26T13:52:23.127Z,1.50
2023-10-26T13:57:33.293Z,1.35
2023-10-26T14:02:42.025Z,0.95
2023-10-26T14:07:50.749Z,1.20
2023-10-26T14:13:01.080Z,1.35
2023-10-26T14:23:18.713Z,1.67
2023-10-26T14:28:28.836Z,1.52
2023-10-26T14:33:37.674Z,1.15
2023-10-26T14:38:41.479Z,1.30
2023-10-26T14:43:51.933Z,1.58
2023-10-26T14:54:05.533Z,2.20
2023-10-26T14:59:15.756Z,3.00
2023-10-26T15:04:24.543Z,4.50
2023-10-26T15:10:23.967Z,7.40
2023-10-26T15:15:05.360Z,7.10
2023-10-26T15:20:14.171Z,6.65
2023-10-26T15:25:22.862Z,6.88
2023-10-26T15:30:33.034Z,4.25
2023-10-26T15:35:41.723Z,3.60
2023-10-26T15:40:45.420Z,2.90
2023-10-26T15:45:51.155Z,3.35
2023-10-26T15:51:00.952Z,3.30
2023-10-26T15:56:11.774Z,2.30
2023-10-26T16:01:17.378Z,2.58
2023-10-26T16:06:26.165Z,2.28
2023-10-26T16:11:29.865Z,1.95
2023-10-26T16:16:40.025Z,6.85
2023-10-26T16:21:49.024Z,3.08
2023-10-26T16:26:52.731Z,2.90
2023-10-26T16:32:02.899Z,2.30
2023-10-26T16:37:11.834Z,2.10
2023-10-26T16:42:15.651Z,2.70
2023-10-26T16:47:20.701Z,2.70
2023-10-26T16:52:29.480Z,2.23
2023-10-26T16:57:38.297Z,1.92
2023-10-26T17:02:43.570Z,2.83
2023-10-26T17:07:53.130Z,3.17
2023-10-26T17:13:02.423Z,3.05
2023-10-26T17:18:12.604Z,4.20
2023-10-26T17:23:22.151Z,3.08
2023-10-26T17:28:31.046Z,3.58
2023-10-26T17:33:36.489Z,3.53
2023-10-26T17:38:45.374Z,3.92
2023-10-26T17:43:54.385Z,4.13
2023-10-26T17:49:04.582Z,4.93
2023-10-26T17:54:08.453Z,5.60
2023-10-26T17:59:17.213Z,4.95
2023-10-26T18:04:22.439Z,4.30
2023-10-26T18:09:31.522Z,5.55
2023-10-26T18:14:35.317Z,4.95
2023-10-26T18:19:45.603Z,3.88
2023-10-26T18:24:56.771Z,3.63
2023-10-26T18:35:16.488Z,3.90
2023-10-26T18:40:25.190Z,2.58
2023-10-26T18:45:33.975Z,2.90
2023-10-26T18:50:48.236Z,3.80
2023-10-26T18:55:57.303Z,3.30
2023-10-26T19:01:01.122Z,3.10
2023-10-26T19:06:06.757Z,3.50
2023-10-26T19:11:16.750Z,3.78
2023-10-26T19:16:20.587Z,3.63
2023-10-26T19:21:30.940Z,3.80
2023-10-26T19:26:39.901Z,4.20
2023-10-26T19:31:48.656Z,3.30
2023-10-26T19:36:59.024Z,4.40
2023-10-26T19:42:07.883Z,4.38
2023-10-26T19:47:17.372Z,4.38
2023-10-26T19:52:27.641Z,4.43
2023-10-26T19:57:36.766Z,4.80
2023-10-26T20:02:45.938Z,5.13
2023-10-26T20:07:57.514Z,5.75
2023-10-26T20:13:06.367Z,5.70
2023-10-26T20:18:15.094Z,4.65
2023-10-26T20:23:25.214Z,4.85
2023-10-26T20:28:36.680Z,4.97
2023-10-26T20:33:45.539Z,4.38
2023-10-26T20:38:56.571Z,4.78
2023-10-26T20:49:16.581Z,3.63
2023-10-26T20:54:26.765Z,4.53
2023-10-26T20:59:38.634Z,4.20
2023-10-26T21:04:47.312Z,4.80
2023-10-26T21:09:58.796Z,5.03
2023-10-26T21:15:08.648Z,4.50
2023-10-26T21:20:17.438Z,4.50
2023-10-26T21:25:28.902Z,4.45
2023-10-26T21:30:37.989Z,4.68
2023-10-26T21:35:46.850Z,4.63
2023-10-26T21:40:57.111Z,4.93
2023-10-26T21:46:06.815Z,4.23
2023-10-26T21:51:10.712Z,4.65
2023-10-26T21:56:20.808Z,4.60
2023-10-26T22:01:29.609Z,4.53
2023-10-26T22:06:33.552Z,5.68
2023-10-26T22:11:43.750Z,5.63
2023-10-26T22:16:47.490Z,5.68
2023-10-26T22:21:57.429Z,5.45
2023-10-26T22:27:02.745Z,5.70
2023-10-26T22:32:12.608Z,5.05
2023-10-26T22:37:21.623Z,5.30
2023-10-26T22:42:32.256Z,5.38
2023-10-26T22:47:41.025Z,5.47
2023-10-26T22:52:50.025Z,5.47
2023-10-26T22:57:55.088Z,5.40
2023-10-26T23:02:58.820Z,6.13
2023-10-26T23:08:02.572Z,5.82
2023-10-26T23:13:12.657Z,4.50
2023-10-26T23:18:21.409Z,5.15
2023-10-26T23:23:30.170Z,5.40
2023-10-26T23:28:40.255Z,5.72
2023-10-26T23:33:48.996Z,6.20
2023-10-26T23:38:57.767Z,3.97
2023-10-26T23:44:08.621Z,5.68
2023-10-26T23:49:17.324Z,4.20
2023-10-26T23:54:27.322Z,4.60
2023-10-26T23:59:37.356Z,4.82
